sensor_id;sensor_type;location;lat;lon;timestamp;temperature;humidity
21493;DHT22;10908;50.690;4.400;2022-12-26T00:01:31;11.30;93.40
21493;DHT22;10908;50.690;4.400;2022-12-26T00:03:57;11.30;93.40
21493;DHT22;10908;50.690;4.400;2022-12-26T00:06:26;11.30;93.40
21493;DHT22;10908;50.690;4.400;2022-12-26T00:08:52;11.30;93.40
21493;DHT22;10908;50.690;4.400;2022-12-26T00:11:18;11.30;93.40
21493;DHT22;10908;50.690;4.400;2022-12-26T00:13:44;11.30;93.40
21493;DHT22;10908;50.690;4.400;2022-12-26T00:16:13;11.30;93.40
21493;DHT22;10908;50.690;4.400;2022-12-26T00:18:40;11.40;93.30
21493;DHT22;10908;50.690;4.400;2022-12-26T00:21:07;11.30;93.30
21493;DHT22;10908;50.690;4.400;2022-12-26T00:23:34;11.30;93.30
21493;DHT22;10908;50.690;4.400;2022-12-26T00:26:05;11.40;93.30
21493;DHT22;10908;50.690;4.400;2022-12-26T00:28:31;11.30;93.30
21493;DHT22;10908;50.690;4.400;2022-12-26T00:30:56;11.30;93.30
21493;DHT22;10908;50.690;4.400;2022-12-26T00:33:22;11.30;93.30
21493;DHT22;10908;50.690;4.400;2022-12-26T00:35:48;11.40;93.20
21493;DHT22;10908;50.690;4.400;2022-12-26T00:38:13;11.30;93.20
21493;DHT22;10908;50.690;4.400;2022-12-26T00:40:40;11.20;93.30
21493;DHT22;10908;50.690;4.400;2022-12-26T00:43:08;11.30;93.30
21493;DHT22;10908;50.690;4.400;2022-12-26T00:45:34;11.30;93.30
21493;DHT22;10908;50.690;4.400;2022-12-26T00:48:00;11.20;93.30
21493;DHT22;10908;50.690;4.400;2022-12-26T00:50:26;11.30;93.30
21493;DHT22;10908;50.690;4.400;2022-12-26T00:52:52;11.30;93.20
21493;DHT22;10908;50.690;4.400;2022-12-26T00:55:18;11.20;93.10
21493;DHT22;10908;50.690;4.400;2022-12-26T00:57:43;11.10;93.10
21493;DHT22;10908;50.690;4.400;2022-12-26T01:00:09;11.20;93.10
21493;DHT22;10908;50.690;4.400;2022-12-26T01:02:35;11.10;93.10
21493;DHT22;10908;50.690;4.400;2022-12-26T01:05:08;11.10;93.10
21493;DHT22;10908;50.690;4.400;2022-12-26T01:07:35;11.10;93.10
21493;DHT22;10908;50.690;4.400;2022-12-26T01:10:02;11.10;92.90
21493;DHT22;10908;50.690;4.400;2022-12-26T01:12:28;11.10;92.90
21493;DHT22;10908;50.690;4.400;2022-12-26T01:14:55;11.00;92.80
21493;DHT22;10908;50.690;4.400;2022-12-26T01:17:21;11.10;92.90
21493;DHT22;10908;50.690;4.400;2022-12-26T01:19:47;11.10;92.80
21493;DHT22;10908;50.690;4.400;2022-12-26T01:22:12;11.10;92.70
21493;DHT22;10908;50.690;4.400;2022-12-26T01:24:38;11.00;92.80
21493;DHT22;10908;50.690;4.400;2022-12-26T01:27:04;11.00;92.80
21493;DHT22;10908;50.690;4.400;2022-12-26T01:29:29;11.00;92.70
21493;DHT22;10908;50.690;4.400;2022-12-26T01:31:55;11.00;92.80
21493;DHT22;10908;50.690;4.400;2022-12-26T01:34:21;11.00;92.80
21493;DHT22;10908;50.690;4.400;2022-12-26T01:36:46;11.00;92.60
21493;DHT22;10908;50.690;4.400;2022-12-26T01:39:12;11.00;92.60
21493;DHT22;10908;50.690;4.400;2022-12-26T01:41:37;11.10;92.50
21493;DHT22;10908;50.690;4.400;2022-12-26T01:44:06;11.00;92.40
21493;DHT22;10908;50.690;4.400;2022-12-26T01:46:50;11.00;92.30
21493;DHT22;10908;50.690;4.400;2022-12-26T01:49:24;11.10;92.30
21493;DHT22;10908;50.690;4.400;2022-12-26T01:51:56;10.90;92.30
21493;DHT22;10908;50.690;4.400;2022-12-26T01:54:23;11.00;92.00
21493;DHT22;10908;50.690;4.400;2022-12-26T01:56:50;10.90;91.90
21493;DHT22;10908;50.690;4.400;2022-12-26T01:59:23;10.90;91.90
21493;DHT22;10908;50.690;4.400;2022-12-26T02:01:51;10.90;91.90
21493;DHT22;10908;50.690;4.400;2022-12-26T02:04:23;10.90;91.80
21493;DHT22;10908;50.690;4.400;2022-12-26T02:07:09;10.90;91.80
21493;DHT22;10908;50.690;4.400;2022-12-26T02:09:35;10.80;91.80
21493;DHT22;10908;50.690;4.400;2022-12-26T02:12:48;10.80;91.70
21493;DHT22;10908;50.690;4.400;2022-12-26T02:14:50;10.80;91.80
21493;DHT22;10908;50.690;4.400;2022-12-26T02:17:16;10.80;91.70
21493;DHT22;10908;50.690;4.400;2022-12-26T02:20:05;10.70;91.70
21493;DHT22;10908;50.690;4.400;2022-12-26T02:23:06;10.70;91.70
21493;DHT22;10908;50.690;4.400;2022-12-26T02:31:17;10.80;91.50
21493;DHT22;10908;50.690;4.400;2022-12-26T02:42:03;10.80;91.50
21493;DHT22;10908;50.690;4.400;2022-12-26T02:44:47;10.80;91.40
21493;DHT22;10908;50.690;4.400;2022-12-26T02:47:56;10.80;91.60
21493;DHT22;10908;50.690;4.400;2022-12-26T02:50:41;10.80;91.50
21493;DHT22;10908;50.690;4.400;2022-12-26T02:56:38;10.70;91.70
21493;DHT22;10908;50.690;4.400;2022-12-26T03:02:37;10.70;91.90
21493;DHT22;10908;50.690;4.400;2022-12-26T03:05:36;10.60;92.10
21493;DHT22;10908;50.690;4.400;2022-12-26T03:08:34;10.60;92.20
21493;DHT22;10908;50.690;4.400;2022-12-26T03:11:21;10.60;92.20
21493;DHT22;10908;50.690;4.400;2022-12-26T03:14:16;10.50;92.30
21493;DHT22;10908;50.690;4.400;2022-12-26T03:16:45;10.50;92.30
21493;DHT22;10908;50.690;4.400;2022-12-26T03:19:32;10.50;92.40
21493;DHT22;10908;50.690;4.400;2022-12-26T03:22:01;10.50;92.40
21493;DHT22;10908;50.690;4.400;2022-12-26T03:24:47;10.60;92.50
21493;DHT22;10908;50.690;4.400;2022-12-26T03:27:32;10.60;92.30
21493;DHT22;10908;50.690;4.400;2022-12-26T03:29:58;10.50;92.30
21493;DHT22;10908;50.690;4.400;2022-12-26T03:32:43;10.60;92.30
21493;DHT22;10908;50.690;4.400;2022-12-26T03:35:12;10.50;92.30
21493;DHT22;10908;50.690;4.400;2022-12-26T03:37:54;10.70;92.20
21493;DHT22;10908;50.690;4.400;2022-12-26T03:40:52;10.70;92.10
21493;DHT22;10908;50.690;4.400;2022-12-26T03:50:00;10.60;92.20
21493;DHT22;10908;50.690;4.400;2022-12-26T03:53:02;10.60;92.10
21493;DHT22;10908;50.690;4.400;2022-12-26T03:58:50;10.60;92.20
21493;DHT22;10908;50.690;4.400;2022-12-26T04:01:38;10.60;92.20
21493;DHT22;10908;50.690;4.400;2022-12-26T04:04:24;10.70;92.10
21493;DHT22;10908;50.690;4.400;2022-12-26T04:07:14;10.60;92.00
21493;DHT22;10908;50.690;4.400;2022-12-26T04:12:51;10.60;92.00
21493;DHT22;10908;50.690;4.400;2022-12-26T04:16:03;10.60;92.00
21493;DHT22;10908;50.690;4.400;2022-12-26T04:18:58;10.60;91.90
21493;DHT22;10908;50.690;4.400;2022-12-26T04:21:46;10.60;91.90
21493;DHT22;10908;50.690;4.400;2022-12-26T04:24:42;10.60;91.90
21493;DHT22;10908;50.690;4.400;2022-12-26T04:27:28;10.60;91.80
21493;DHT22;10908;50.690;4.400;2022-12-26T04:30:13;10.60;91.80
21493;DHT22;10908;50.690;4.400;2022-12-26T04:33:06;10.50;91.80
21493;DHT22;10908;50.690;4.400;2022-12-26T04:36:02;10.50;91.80
21493;DHT22;10908;50.690;4.400;2022-12-26T04:38:53;10.50;91.80
21493;DHT22;10908;50.690;4.400;2022-12-26T04:41:40;10.40;91.70
21493;DHT22;10908;50.690;4.400;2022-12-26T04:44:26;10.40;91.70
21493;DHT22;10908;50.690;4.400;2022-12-26T04:46:54;10.40;91.70
21493;DHT22;10908;50.690;4.400;2022-12-26T04:49:20;10.50;91.60
21493;DHT22;10908;50.690;4.400;2022-12-26T04:52:07;10.50;91.50
21493;DHT22;10908;50.690;4.400;2022-12-26T04:54:33;10.50;91.40
21493;DHT22;10908;50.690;4.400;2022-12-26T04:56:59;10.50;91.20
21493;DHT22;10908;50.690;4.400;2022-12-26T04:59:25;10.50;91.20
21493;DHT22;10908;50.690;4.400;2022-12-26T05:01:51;10.40;91.10
21493;DHT22;10908;50.690;4.400;2022-12-26T05:04:36;10.40;91.00
21493;DHT22;10908;50.690;4.400;2022-12-26T05:07:32;10.40;91.00
21493;DHT22;10908;50.690;4.400;2022-12-26T05:10:19;10.40;91.00
21493;DHT22;10908;50.690;4.400;2022-12-26T05:12:45;10.40;91.00
21493;DHT22;10908;50.690;4.400;2022-12-26T05:15:11;10.30;91.10
21493;DHT22;10908;50.690;4.400;2022-12-26T05:17:37;10.30;91.20
21493;DHT22;10908;50.690;4.400;2022-12-26T05:20:31;10.30;91.20
21493;DHT22;10908;50.690;4.400;2022-12-26T05:23:23;10.30;91.10
21493;DHT22;10908;50.690;4.400;2022-12-26T05:26:16;10.40;91.20
21493;DHT22;10908;50.690;4.400;2022-12-26T05:29:02;10.40;91.20
21493;DHT22;10908;50.690;4.400;2022-12-26T05:31:28;10.40;91.20
21493;DHT22;10908;50.690;4.400;2022-12-26T05:33:54;10.50;91.00
21493;DHT22;10908;50.690;4.400;2022-12-26T05:36:39;10.40;91.10
21493;DHT22;10908;50.690;4.400;2022-12-26T05:39:06;10.40;91.10
21493;DHT22;10908;50.690;4.400;2022-12-26T05:41:32;10.40;91.00
21493;DHT22;10908;50.690;4.400;2022-12-26T05:43:58;10.40;91.00
21493;DHT22;10908;50.690;4.400;2022-12-26T05:46:24;10.40;91.00
21493;DHT22;10908;50.690;4.400;2022-12-26T05:48:49;10.40;91.10
21493;DHT22;10908;50.690;4.400;2022-12-26T05:51:15;10.40;91.10
21493;DHT22;10908;50.690;4.400;2022-12-26T05:53:41;10.40;91.10
21493;DHT22;10908;50.690;4.400;2022-12-26T05:56:11;10.30;91.10
21493;DHT22;10908;50.690;4.400;2022-12-26T05:58:38;10.30;91.00
21493;DHT22;10908;50.690;4.400;2022-12-26T06:01:06;10.30;91.00
21493;DHT22;10908;50.690;4.400;2022-12-26T06:03:32;10.30;91.00
21493;DHT22;10908;50.690;4.400;2022-12-26T06:05:58;10.30;91.00
21493;DHT22;10908;50.690;4.400;2022-12-26T06:08:23;10.30;91.00
21493;DHT22;10908;50.690;4.400;2022-12-26T06:10:49;10.20;91.00
21493;DHT22;10908;50.690;4.400;2022-12-26T06:13:15;10.10;91.10
21493;DHT22;10908;50.690;4.400;2022-12-26T06:15:40;10.10;91.20
21493;DHT22;10908;50.690;4.400;2022-12-26T06:18:06;10.10;91.20
21493;DHT22;10908;50.690;4.400;2022-12-26T06:20:31;10.00;91.20
21493;DHT22;10908;50.690;4.400;2022-12-26T06:22:57;10.00;91.20
21493;DHT22;10908;50.690;4.400;2022-12-26T06:25:22;10.00;91.30
21493;DHT22;10908;50.690;4.400;2022-12-26T06:27:48;10.00;91.30
21493;DHT22;10908;50.690;4.400;2022-12-26T06:30:14;9.90;91.20
21493;DHT22;10908;50.690;4.400;2022-12-26T06:32:39;9.90;91.20
21493;DHT22;10908;50.690;4.400;2022-12-26T06:35:05;10.10;91.10
21493;DHT22;10908;50.690;4.400;2022-12-26T06:37:32;10.00;91.10
21493;DHT22;10908;50.690;4.400;2022-12-26T06:39:57;9.90;91.10
21493;DHT22;10908;50.690;4.400;2022-12-26T06:42:24;9.90;91.00
21493;DHT22;10908;50.690;4.400;2022-12-26T06:44:49;9.90;90.90
21493;DHT22;10908;50.690;4.400;2022-12-26T06:47:15;9.90;90.90
21493;DHT22;10908;50.690;4.400;2022-12-26T06:49:40;9.90;91.00
21493;DHT22;10908;50.690;4.400;2022-12-26T06:52:06;9.90;90.90
21493;DHT22;10908;50.690;4.400;2022-12-26T06:54:32;10.00;90.90
21493;DHT22;10908;50.690;4.400;2022-12-26T06:56:59;10.00;90.90
21493;DHT22;10908;50.690;4.400;2022-12-26T06:59:25;9.90;90.90
21493;DHT22;10908;50.690;4.400;2022-12-26T07:01:50;9.90;90.80
21493;DHT22;10908;50.690;4.400;2022-12-26T07:04:16;9.90;90.80
21493;DHT22;10908;50.690;4.400;2022-12-26T07:06:41;10.10;90.70
21493;DHT22;10908;50.690;4.400;2022-12-26T07:09:10;10.10;90.60
21493;DHT22;10908;50.690;4.400;2022-12-26T07:11:39;10.10;90.60
21493;DHT22;10908;50.690;4.400;2022-12-26T07:14:05;10.20;90.40
21493;DHT22;10908;50.690;4.400;2022-12-26T07:16:36;10.30;90.20
21493;DHT22;10908;50.690;4.400;2022-12-26T07:19:02;10.30;90.00
21493;DHT22;10908;50.690;4.400;2022-12-26T07:21:28;10.30;90.00
21493;DHT22;10908;50.690;4.400;2022-12-26T07:23:54;10.30;89.80
21493;DHT22;10908;50.690;4.400;2022-12-26T07:26:20;10.40;89.60
21493;DHT22;10908;50.690;4.400;2022-12-26T07:28:46;10.30;89.50
21493;DHT22;10908;50.690;4.400;2022-12-26T07:31:17;10.40;89.30
21493;DHT22;10908;50.690;4.400;2022-12-26T07:33:49;10.30;89.10
21493;DHT22;10908;50.690;4.400;2022-12-26T07:36:16;10.40;89.10
21493;DHT22;10908;50.690;4.400;2022-12-26T07:38:41;10.40;89.00
21493;DHT22;10908;50.690;4.400;2022-12-26T07:41:07;10.40;88.70
21493;DHT22;10908;50.690;4.400;2022-12-26T07:43:51;10.40;88.70
21493;DHT22;10908;50.690;4.400;2022-12-26T07:46:17;10.40;88.60
21493;DHT22;10908;50.690;4.400;2022-12-26T07:48:43;10.40;88.50
21493;DHT22;10908;50.690;4.400;2022-12-26T07:51:08;10.40;88.60
21493;DHT22;10908;50.690;4.400;2022-12-26T07:53:34;10.50;88.50
21493;DHT22;10908;50.690;4.400;2022-12-26T07:56:00;10.40;88.20
21493;DHT22;10908;50.690;4.400;2022-12-26T07:58:26;10.40;88.30
21493;DHT22;10908;50.690;4.400;2022-12-26T08:00:52;10.40;88.30
21493;DHT22;10908;50.690;4.400;2022-12-26T08:03:18;10.50;88.20
21493;DHT22;10908;50.690;4.400;2022-12-26T08:05:47;10.50;87.70
21493;DHT22;10908;50.690;4.400;2022-12-26T08:08:13;10.50;87.70
21493;DHT22;10908;50.690;4.400;2022-12-26T08:10:39;10.50;87.70
21493;DHT22;10908;50.690;4.400;2022-12-26T08:13:04;10.50;87.50
21493;DHT22;10908;50.690;4.400;2022-12-26T08:15:30;10.60;87.50
21493;DHT22;10908;50.690;4.400;2022-12-26T08:17:56;10.50;87.30
21493;DHT22;10908;50.690;4.400;2022-12-26T08:20:21;10.50;87.30
21493;DHT22;10908;50.690;4.400;2022-12-26T08:22:47;10.50;87.30
21493;DHT22;10908;50.690;4.400;2022-12-26T08:25:12;10.60;87.30
21493;DHT22;10908;50.690;4.400;2022-12-26T08:27:38;10.50;87.10
21493;DHT22;10908;50.690;4.400;2022-12-26T08:30:04;10.50;87.30
21493;DHT22;10908;50.690;4.400;2022-12-26T08:32:30;10.50;87.20
21493;DHT22;10908;50.690;4.400;2022-12-26T08:34:56;10.50;87.20
21493;DHT22;10908;50.690;4.400;2022-12-26T08:37:21;10.50;87.40
21493;DHT22;10908;50.690;4.400;2022-12-26T08:39:49;10.60;87.40
21493;DHT22;10908;50.690;4.400;2022-12-26T08:42:17;10.70;87.50
21493;DHT22;10908;50.690;4.400;2022-12-26T08:44:42;10.70;87.00
21493;DHT22;10908;50.690;4.400;2022-12-26T08:47:08;10.70;86.80
21493;DHT22;10908;50.690;4.400;2022-12-26T08:49:34;10.60;86.80
21493;DHT22;10908;50.690;4.400;2022-12-26T08:51:59;10.60;86.90
21493;DHT22;10908;50.690;4.400;2022-12-26T08:54:25;10.60;86.80
21493;DHT22;10908;50.690;4.400;2022-12-26T08:56:50;10.60;86.80
21493;DHT22;10908;50.690;4.400;2022-12-26T08:59:16;10.70;86.90
21493;DHT22;10908;50.690;4.400;2022-12-26T09:01:42;10.70;86.70
21493;DHT22;10908;50.690;4.400;2022-12-26T09:04:07;10.60;86.70
21493;DHT22;10908;50.690;4.400;2022-12-26T09:06:35;10.60;86.50
21493;DHT22;10908;50.690;4.400;2022-12-26T09:09:01;10.60;86.10
21493;DHT22;10908;50.690;4.400;2022-12-26T09:11:27;10.60;85.80
21493;DHT22;10908;50.690;4.400;2022-12-26T09:13:54;10.60;85.80
21493;DHT22;10908;50.690;4.400;2022-12-26T09:16:27;10.70;85.50
21493;DHT22;10908;50.690;4.400;2022-12-26T09:18:55;10.80;85.10
21493;DHT22;10908;50.690;4.400;2022-12-26T09:21:21;10.70;85.50
21493;DHT22;10908;50.690;4.400;2022-12-26T09:23:47;10.70;85.40
21493;DHT22;10908;50.690;4.400;2022-12-26T09:26:15;10.70;85.50
21493;DHT22;10908;50.690;4.400;2022-12-26T09:28:42;10.80;85.60
21493;DHT22;10908;50.690;4.400;2022-12-26T09:31:12;10.70;85.50
21493;DHT22;10908;50.690;4.400;2022-12-26T09:33:38;10.80;85.60
21493;DHT22;10908;50.690;4.400;2022-12-26T09:36:10;10.80;85.80
21493;DHT22;10908;50.690;4.400;2022-12-26T09:38:35;10.80;85.70
21493;DHT22;10908;50.690;4.400;2022-12-26T09:44:11;10.90;85.50
21493;DHT22;10908;50.690;4.400;2022-12-26T09:49:30;10.90;86.00
21493;DHT22;10908;50.690;4.400;2022-12-26T09:51:59;11.00;86.20
21493;DHT22;10908;50.690;4.400;2022-12-26T09:54:42;10.90;86.20
21493;DHT22;10908;50.690;4.400;2022-12-26T09:57:15;10.90;86.20
21493;DHT22;10908;50.690;4.400;2022-12-26T10:00:02;10.90;86.00
21493;DHT22;10908;50.690;4.400;2022-12-26T10:02:29;11.00;85.60
21493;DHT22;10908;50.690;4.400;2022-12-26T10:04:55;11.00;85.60
21493;DHT22;10908;50.690;4.400;2022-12-26T10:10:13;11.00;85.50
21493;DHT22;10908;50.690;4.400;2022-12-26T10:12:50;10.90;85.60
21493;DHT22;10908;50.690;4.400;2022-12-26T10:15:48;10.90;85.70
21493;DHT22;10908;50.690;4.400;2022-12-26T10:18:32;11.00;86.00
21493;DHT22;10908;50.690;4.400;2022-12-26T10:21:41;11.00;86.00
21493;DHT22;10908;50.690;4.400;2022-12-26T10:24:15;11.00;86.10
21493;DHT22;10908;50.690;4.400;2022-12-26T10:26:52;10.90;86.20
21493;DHT22;10908;50.690;4.400;2022-12-26T10:31:52;11.00;86.70
21493;DHT22;10908;50.690;4.400;2022-12-26T10:34:24;11.00;87.10
21493;DHT22;10908;50.690;4.400;2022-12-26T10:37:06;11.10;87.20
21493;DHT22;10908;50.690;4.400;2022-12-26T10:42:40;10.90;86.90
21493;DHT22;10908;50.690;4.400;2022-12-26T10:47:48;10.90;85.80
21493;DHT22;10908;50.690;4.400;2022-12-26T10:50:20;10.80;85.90
21493;DHT22;10908;50.690;4.400;2022-12-26T10:52:47;10.80;85.90
21493;DHT22;10908;50.690;4.400;2022-12-26T10:55:15;10.80;86.50
21493;DHT22;10908;50.690;4.400;2022-12-26T10:57:41;10.80;86.70
21493;DHT22;10908;50.690;4.400;2022-12-26T11:00:26;10.70;87.10
21493;DHT22;10908;50.690;4.400;2022-12-26T11:03:08;10.70;87.20
21493;DHT22;10908;50.690;4.400;2022-12-26T11:05:37;10.60;87.30
21493;DHT22;10908;50.690;4.400;2022-12-26T11:08:22;10.50;87.80
21493;DHT22;10908;50.690;4.400;2022-12-26T11:11:13;10.60;88.10
21493;DHT22;10908;50.690;4.400;2022-12-26T11:13:53;10.60;88.20
21493;DHT22;10908;50.690;4.400;2022-12-26T11:16:25;10.60;88.40
21493;DHT22;10908;50.690;4.400;2022-12-26T11:18:52;10.70;88.30
21493;DHT22;10908;50.690;4.400;2022-12-26T11:23:48;10.70;87.60
21493;DHT22;10908;50.690;4.400;2022-12-26T11:26:28;10.50;87.20
21493;DHT22;10908;50.690;4.400;2022-12-26T11:29:20;10.50;87.30
21493;DHT22;10908;50.690;4.400;2022-12-26T11:31:56;10.50;87.50
21493;DHT22;10908;50.690;4.400;2022-12-26T11:34:35;10.60;87.60
21493;DHT22;10908;50.690;4.400;2022-12-26T11:37:03;10.50;87.60
21493;DHT22;10908;50.690;4.400;2022-12-26T11:39:33;10.50;87.50
21493;DHT22;10908;50.690;4.400;2022-12-26T11:41:59;10.40;86.30
21493;DHT22;10908;50.690;4.400;2022-12-26T11:44:33;10.10;84.00
21493;DHT22;10908;50.690;4.400;2022-12-26T11:47:08;10.20;83.10
21493;DHT22;10908;50.690;4.400;2022-12-26T11:49:38;10.20;82.60
21493;DHT22;10908;50.690;4.400;2022-12-26T11:52:42;10.20;82.50
21493;DHT22;10908;50.690;4.400;2022-12-26T11:57:56;9.90;78.90
21493;DHT22;10908;50.690;4.400;2022-12-26T12:00:23;9.80;77.40
21493;DHT22;10908;50.690;4.400;2022-12-26T12:02:49;9.60;76.50
21493;DHT22;10908;50.690;4.400;2022-12-26T12:08:04;9.60;75.40
21493;DHT22;10908;50.690;4.400;2022-12-26T12:18:42;9.60;75.30
21493;DHT22;10908;50.690;4.400;2022-12-26T12:21:44;9.50;74.80
21493;DHT22;10908;50.690;4.400;2022-12-26T12:27:10;9.60;75.70
21493;DHT22;10908;50.690;4.400;2022-12-26T12:33:10;9.80;76.20
21493;DHT22;10908;50.690;4.400;2022-12-26T12:38:34;9.70;75.60
21493;DHT22;10908;50.690;4.400;2022-12-26T12:41:38;9.60;75.60
21493;DHT22;10908;50.690;4.400;2022-12-26T12:50:00;9.70;76.90
21493;DHT22;10908;50.690;4.400;2022-12-26T12:55:28;9.70;77.00
21493;DHT22;10908;50.690;4.400;2022-12-26T13:01:17;9.70;77.50
21493;DHT22;10908;50.690;4.400;2022-12-26T13:04:10;9.90;77.50
21493;DHT22;10908;50.690;4.400;2022-12-26T13:06:42;9.90;76.80
21493;DHT22;10908;50.690;4.400;2022-12-26T13:14:18;9.70;75.00
21493;DHT22;10908;50.690;4.400;2022-12-26T13:17:02;9.70;75.70
21493;DHT22;10908;50.690;4.400;2022-12-26T13:22:33;9.80;75.70
21493;DHT22;10908;50.690;4.400;2022-12-26T13:25:23;9.60;74.40
21493;DHT22;10908;50.690;4.400;2022-12-26T13:27:52;9.40;75.00
21493;DHT22;10908;50.690;4.400;2022-12-26T13:30:19;9.30;75.10
21493;DHT22;10908;50.690;4.400;2022-12-26T13:32:45;9.30;74.50
21493;DHT22;10908;50.690;4.400;2022-12-26T13:35:56;9.30;74.40
21493;DHT22;10908;50.690;4.400;2022-12-26T13:38:24;9.30;74.90
21493;DHT22;10908;50.690;4.400;2022-12-26T13:40:59;9.30;74.00
21493;DHT22;10908;50.690;4.400;2022-12-26T14:00:16;9.10;70.80
21493;DHT22;10908;50.690;4.400;2022-12-26T14:13:31;8.60;68.60
21493;DHT22;10908;50.690;4.400;2022-12-26T14:21:54;8.60;68.40
21493;DHT22;10908;50.690;4.400;2022-12-26T14:27:17;8.40;68.60
21493;DHT22;10908;50.690;4.400;2022-12-26T14:29:55;8.40;68.70
21493;DHT22;10908;50.690;4.400;2022-12-26T14:41:11;8.40;69.60
21493;DHT22;10908;50.690;4.400;2022-12-26T14:43:56;8.40;68.30
21493;DHT22;10908;50.690;4.400;2022-12-26T14:49:23;8.30;68.70
21493;DHT22;10908;50.690;4.400;2022-12-26T14:54:51;8.20;68.70
21493;DHT22;10908;50.690;4.400;2022-12-26T14:57:40;8.30;69.00
21493;DHT22;10908;50.690;4.400;2022-12-26T15:05:35;8.20;67.40
21493;DHT22;10908;50.690;4.400;2022-12-26T15:13:28;7.90;67.70
21493;DHT22;10908;50.690;4.400;2022-12-26T15:22:04;7.90;67.20
21493;DHT22;10908;50.690;4.400;2022-12-26T15:30:00;7.80;67.20
21493;DHT22;10908;50.690;4.400;2022-12-26T15:32:38;7.80;66.40
21493;DHT22;10908;50.690;4.400;2022-12-26T15:35:15;7.80;66.60
21493;DHT22;10908;50.690;4.400;2022-12-26T15:40:52;7.60;66.60
21493;DHT22;10908;50.690;4.400;2022-12-26T16:01:11;7.30;67.00
21493;DHT22;10908;50.690;4.400;2022-12-26T16:03:51;7.20;67.40
21493;DHT22;10908;50.690;4.400;2022-12-26T16:11:48;6.80;68.60
21493;DHT22;10908;50.690;4.400;2022-12-26T16:14:31;6.80;69.00
21493;DHT22;10908;50.690;4.400;2022-12-26T16:19:38;7.00;68.70
21493;DHT22;10908;50.690;4.400;2022-12-26T16:22:06;6.90;68.80
21493;DHT22;10908;50.690;4.400;2022-12-26T16:24:52;7.00;68.80
21493;DHT22;10908;50.690;4.400;2022-12-26T16:27:23;6.90;68.80
21493;DHT22;10908;50.690;4.400;2022-12-26T16:29:56;6.80;69.50
21493;DHT22;10908;50.690;4.400;2022-12-26T16:32:29;6.80;70.00
21493;DHT22;10908;50.690;4.400;2022-12-26T16:34:57;6.80;69.90
21493;DHT22;10908;50.690;4.400;2022-12-26T16:37:24;6.80;70.10
21493;DHT22;10908;50.690;4.400;2022-12-26T16:40:20;6.70;70.40
21493;DHT22;10908;50.690;4.400;2022-12-26T16:43:05;6.60;70.70
21493;DHT22;10908;50.690;4.400;2022-12-26T16:45:34;6.70;70.50
21493;DHT22;10908;50.690;4.400;2022-12-26T16:48:04;6.70;70.40
21493;DHT22;10908;50.690;4.400;2022-12-26T16:50:31;6.60;70.70
21493;DHT22;10908;50.690;4.400;2022-12-26T16:53:13;6.60;70.70
21493;DHT22;10908;50.690;4.400;2022-12-26T16:58:44;6.60;70.80
21493;DHT22;10908;50.690;4.400;2022-12-26T17:01:15;6.50;71.20
21493;DHT22;10908;50.690;4.400;2022-12-26T17:03:50;6.30;72.20
21493;DHT22;10908;50.690;4.400;2022-12-26T17:06:33;6.30;72.40
21493;DHT22;10908;50.690;4.400;2022-12-26T17:09:14;6.20;72.70
21493;DHT22;10908;50.690;4.400;2022-12-26T17:11:56;6.10;73.30
21493;DHT22;10908;50.690;4.400;2022-12-26T17:14:38;6.20;73.40
21493;DHT22;10908;50.690;4.400;2022-12-26T17:17:10;6.20;73.60
21493;DHT22;10908;50.690;4.400;2022-12-26T17:19:55;6.10;74.00
21493;DHT22;10908;50.690;4.400;2022-12-26T17:22:35;6.10;74.40
21493;DHT22;10908;50.690;4.400;2022-12-26T17:27:45;5.90;74.90
21493;DHT22;10908;50.690;4.400;2022-12-26T17:30:30;5.90;75.20
21493;DHT22;10908;50.690;4.400;2022-12-26T17:33:16;5.90;75.40
21493;DHT22;10908;50.690;4.400;2022-12-26T17:36:01;5.80;75.70
21493;DHT22;10908;50.690;4.400;2022-12-26T17:38:28;5.90;75.60
21493;DHT22;10908;50.690;4.400;2022-12-26T17:40:56;5.90;75.60
21493;DHT22;10908;50.690;4.400;2022-12-26T17:43:30;5.90;75.60
21493;DHT22;10908;50.690;4.400;2022-12-26T17:45:56;5.70;76.00
21493;DHT22;10908;50.690;4.400;2022-12-26T17:48:22;5.60;76.40
21493;DHT22;10908;50.690;4.400;2022-12-26T17:50:52;5.70;76.50
21493;DHT22;10908;50.690;4.400;2022-12-26T17:55:47;5.70;76.10
21493;DHT22;10908;50.690;4.400;2022-12-26T17:58:13;5.70;76.40
21493;DHT22;10908;50.690;4.400;2022-12-26T18:00:40;5.60;76.70
21493;DHT22;10908;50.690;4.400;2022-12-26T18:03:06;5.70;77.40
21493;DHT22;10908;50.690;4.400;2022-12-26T18:05:32;5.70;77.00
21493;DHT22;10908;50.690;4.400;2022-12-26T18:07:59;5.70;76.70
21493;DHT22;10908;50.690;4.400;2022-12-26T18:10:27;5.70;76.60
21493;DHT22;10908;50.690;4.400;2022-12-26T18:12:53;5.60;76.90
21493;DHT22;10908;50.690;4.400;2022-12-26T18:15:20;5.60;76.90
21493;DHT22;10908;50.690;4.400;2022-12-26T18:17:47;5.60;76.90
21493;DHT22;10908;50.690;4.400;2022-12-26T18:20:26;5.70;76.80
21493;DHT22;10908;50.690;4.400;2022-12-26T18:22:53;5.60;76.90
21493;DHT22;10908;50.690;4.400;2022-12-26T18:25:24;5.60;76.80
21493;DHT22;10908;50.690;4.400;2022-12-26T18:27:51;5.50;77.10
21493;DHT22;10908;50.690;4.400;2022-12-26T18:30:23;5.40;77.40
21493;DHT22;10908;50.690;4.400;2022-12-26T18:32:51;5.40;77.40
21493;DHT22;10908;50.690;4.400;2022-12-26T18:35:18;5.50;77.40
21493;DHT22;10908;50.690;4.400;2022-12-26T18:37:49;5.50;77.10
21493;DHT22;10908;50.690;4.400;2022-12-26T18:40:39;5.40;77.10
21493;DHT22;10908;50.690;4.400;2022-12-26T18:43:06;5.50;77.30
21493;DHT22;10908;50.690;4.400;2022-12-26T18:45:33;5.40;77.20
21493;DHT22;10908;50.690;4.400;2022-12-26T18:47:59;5.50;77.20
21493;DHT22;10908;50.690;4.400;2022-12-26T18:50:27;5.50;77.20
21493;DHT22;10908;50.690;4.400;2022-12-26T18:52:53;5.60;77.10
21493;DHT22;10908;50.690;4.400;2022-12-26T18:55:19;5.60;76.90
21493;DHT22;10908;50.690;4.400;2022-12-26T18:57:45;5.60;76.80
21493;DHT22;10908;50.690;4.400;2022-12-26T19:00:15;5.60;77.00
21493;DHT22;10908;50.690;4.400;2022-12-26T19:02:43;5.60;77.00
21493;DHT22;10908;50.690;4.400;2022-12-26T19:05:16;5.60;77.00
21493;DHT22;10908;50.690;4.400;2022-12-26T19:07:42;5.60;77.00
21493;DHT22;10908;50.690;4.400;2022-12-26T19:10:09;5.60;76.90
21493;DHT22;10908;50.690;4.400;2022-12-26T19:12:35;5.70;76.80
21493;DHT22;10908;50.690;4.400;2022-12-26T19:15:00;5.70;76.70
21493;DHT22;10908;50.690;4.400;2022-12-26T19:17:26;5.70;76.70
21493;DHT22;10908;50.690;4.400;2022-12-26T19:19:54;5.60;76.90
21493;DHT22;10908;50.690;4.400;2022-12-26T19:22:19;5.60;77.10
21493;DHT22;10908;50.690;4.400;2022-12-26T19:24:45;5.70;76.80
21493;DHT22;10908;50.690;4.400;2022-12-26T19:27:11;5.70;76.90
21493;DHT22;10908;50.690;4.400;2022-12-26T19:29:36;5.60;76.90
21493;DHT22;10908;50.690;4.400;2022-12-26T19:32:03;5.60;77.20
21493;DHT22;10908;50.690;4.400;2022-12-26T19:34:28;5.60;77.40